Pittsburgh, Pennsylvania
Traffic Map
Current Weather Conditions
Pittsburgh, Pennsylvania
Clear
Clear
49°
Feels Like: 45°
Wind Chill: 45° Ceiling: Unl
Heat Index: 49° Visibility: 10mi
Dew Point: 33° Wind: 9mph
Humidity: 54% Direction: 220° (SW)
Pressure: 30.16in Gusts: 0mph
Raw Report DataKAGC 161753Z 22008KT 10SM CLR 09/01 A3016 RMK AO2 SLP222 T00940006 10100 20022 58026
Traffic Incident Summary
Active as of:
Severity:
Category:
InformationThere was an issue retrieving the traffic information for this location. Please try a different location or try again shortly.
Advertisements